Terminal Aerodrome Forecast
Issued by NWS Pittsburgh, PA

Current Version | Previous Version | Graphics & Text | Print | Product List | Glossary On
Versions: 1 2 3 4 5 6 7 8 9 10 11 12 13 14 15 16 17 18 19 20 21 22 23 24 25 26 27 28 29 30 31 32
000
FTUS41 KPBZ 171741
TAFPIT
TAF
KPIT 171741Z 1718/1824 14008KT P6SM OVC100
     FM172030 VRB05KT 2SM -SN OVC015
     FM180000 25005KT 1/2SM SN OVC008
     FM180200 26008KT P6SM VCSH OVC005
     FM180500 26007KT P6SM BKN015
     FM181400 30008KT P6SM OVC025=

USA.gov is the U.S. government's official web portal to all federal, state and local government web resources and services.